createdAt,value
2022-11-09T00:01:03.621Z,14.71
2022-11-09T00:03:30.902Z,14.62
2022-11-09T00:05:59.610Z,14.52
2022-11-09T00:08:27.651Z,14.46
2022-11-09T00:10:54.765Z,14.45
2022-11-09T00:13:22.462Z,14.50
2022-11-09T00:15:49.769Z,14.44
2022-11-09T00:18:16.732Z,14.47
2022-11-09T00:20:47.504Z,14.46
2022-11-09T00:23:18.596Z,14.36
2022-11-09T00:25:45.986Z,14.34
2022-11-09T00:28:13.448Z,14.33
2022-11-09T00:30:41.783Z,14.25
2022-11-09T00:33:08.878Z,14.19
2022-11-09T00:35:39.473Z,14.19
2022-11-09T00:38:06.537Z,14.17
2022-11-09T00:40:33.608Z,14.17
2022-11-09T00:43:00.538Z,14.17
2022-11-09T00:45:27.508Z,14.13
2022-11-09T00:47:54.588Z,14.17
2022-11-09T00:50:21.678Z,14.17
2022-11-09T00:52:48.649Z,14.18
2022-11-09T00:55:15.715Z,14.16
2022-11-09T00:57:42.949Z,14.17
2022-11-09T01:00:11.277Z,14.15
2022-11-09T01:02:38.302Z,14.09
2022-11-09T01:05:05.798Z,14.16
2022-11-09T01:07:32.735Z,14.11
2022-11-09T01:09:59.702Z,14.07
2022-11-09T01:12:26.662Z,14.07
2022-11-09T01:14:53.749Z,14.03
2022-11-09T01:17:21.211Z,14.00
2022-11-09T01:19:48.926Z,13.99
2022-11-09T01:22:17.502Z,13.97
2022-11-09T01:24:45.093Z,13.88
2022-11-09T01:27:12.120Z,13.89
2022-11-09T01:29:39.084Z,13.90
2022-11-09T01:32:06.044Z,13.98
2022-11-09T01:34:33.018Z,13.96
2022-11-09T01:36:59.988Z,14.00
2022-11-09T01:39:26.958Z,13.97
2022-11-09T01:41:53.872Z,14.00
2022-11-09T01:44:21.342Z,13.99
2022-11-09T01:47:07.130Z,13.96
2022-11-09T01:49:49.845Z,13.96
2022-11-09T01:52:29.786Z,13.95
2022-11-09T01:55:09.935Z,13.92
2022-11-09T01:57:50.097Z,13.92
2022-11-09T02:00:18.428Z,13.92
2022-11-09T02:03:01.343Z,14.04
2022-11-09T02:05:32.938Z,14.04
2022-11-09T02:08:01.983Z,14.02
2022-11-09T02:10:50.547Z,14.04
2022-11-09T02:13:20.171Z,14.10
2022-11-09T02:15:49.769Z,14.06
2022-11-09T02:18:18.007Z,14.06
2022-11-09T02:20:57.201Z,14.05
2022-11-09T02:23:26.479Z,14.03
2022-11-09T02:26:03.402Z,14.00
2022-11-09T02:28:32.216Z,14.00
2022-11-09T02:31:00.126Z,14.01
2022-11-09T02:33:27.187Z,14.00
2022-11-09T02:35:54.240Z,13.98
2022-11-09T02:38:21.163Z,14.00
2022-11-09T02:40:51.992Z,14.02
2022-11-09T02:43:19.788Z,14.01
2022-11-09T02:45:46.985Z,13.97
2022-11-09T02:48:14.041Z,13.96
2022-11-09T02:50:40.982Z,13.95
2022-11-09T02:53:08.010Z,13.92
2022-11-09T02:55:34.928Z,13.96
2022-11-09T02:58:01.951Z,13.92
2022-11-09T03:00:29.085Z,13.88
2022-11-09T03:02:56.273Z,13.82
2022-11-09T03:05:23.341Z,13.84
2022-11-09T03:07:50.358Z,13.86
2022-11-09T03:10:17.409Z,13.85
2022-11-09T03:12:44.415Z,13.86
2022-11-09T03:15:11.577Z,13.86
2022-11-09T03:17:38.589Z,13.83
2022-11-09T03:20:06.486Z,13.79
2022-11-09T03:22:33.512Z,13.81
2022-11-09T03:25:00.435Z,13.78
2022-11-09T03:27:27.383Z,13.73
2022-11-09T03:29:54.326Z,13.70
2022-11-09T03:32:21.320Z,13.70
2022-11-09T03:34:49.215Z,13.69
2022-11-09T03:37:16.340Z,13.67
2022-11-09T03:39:43.529Z,13.66
2022-11-09T03:42:10.475Z,13.63
2022-11-09T03:44:37.442Z,13.62
2022-11-09T03:47:04.415Z,13.63
2022-11-09T03:49:31.412Z,13.57
2022-11-09T03:51:58.377Z,13.51
2022-11-09T03:54:25.331Z,13.53
2022-11-09T03:56:52.305Z,13.53
2022-11-09T03:59:19.305Z,13.53
2022-11-09T04:01:46.478Z,13.47
2022-11-09T04:04:13.554Z,13.49
2022-11-09T04:06:40.539Z,13.54
2022-11-09T04:09:07.525Z,13.52
2022-11-09T04:11:34.452Z,13.48
2022-11-09T04:14:01.520Z,13.49
2022-11-09T04:16:28.498Z,13.47
2022-11-09T04:18:55.569Z,13.43
2022-11-09T04:21:24.056Z,13.44
2022-11-09T04:23:51.225Z,13.48
2022-11-09T04:26:18.204Z,13.47
2022-11-09T04:28:45.162Z,13.43
2022-11-09T04:31:12.237Z,13.46
2022-11-09T04:33:39.157Z,13.40
2022-11-09T04:36:06.663Z,13.42
2022-11-09T04:38:33.675Z,13.40
2022-11-09T04:41:03.147Z,13.42
2022-11-09T04:43:30.213Z,13.40
2022-11-09T04:46:03.886Z,13.36
2022-11-09T04:48:32.796Z,13.38
2022-11-09T04:51:04.375Z,13.37
2022-11-09T04:53:31.669Z,13.35
2022-11-09T04:55:58.959Z,13.39
2022-11-09T04:58:26.885Z,13.40
2022-11-09T05:00:55.525Z,13.39
2022-11-09T05:03:22.826Z,13.40
2022-11-09T05:05:51.029Z,13.41
2022-11-09T05:08:18.048Z,13.38
2022-11-09T05:10:45.056Z,13.38
2022-11-09T05:13:13.560Z,13.40
2022-11-09T05:15:41.370Z,13.35
2022-11-09T05:18:09.892Z,13.36
2022-11-09T05:20:37.209Z,13.40
2022-11-09T05:23:23.989Z,13.39
2022-11-09T05:25:51.141Z,13.37
2022-11-09T05:28:18.135Z,13.29
2022-11-09T05:30:45.124Z,13.26
2022-11-09T05:33:12.110Z,13.28
2022-11-09T05:35:39.149Z,13.32
2022-11-09T05:38:06.130Z,13.32
2022-11-09T05:40:34.059Z,13.32
2022-11-09T05:43:01.252Z,13.30
2022-11-09T05:45:42.141Z,13.33
2022-11-09T05:48:13.421Z,13.33
2022-11-09T05:50:43.939Z,13.28
2022-11-09T05:53:12.352Z,13.30
2022-11-09T05:55:40.047Z,13.28
2022-11-09T05:58:07.849Z,13.26
2022-11-09T06:00:35.344Z,13.22
2022-11-09T06:03:09.181Z,13.23
2022-11-09T06:05:38.749Z,13.20
2022-11-09T06:08:14.496Z,13.20
2022-11-09T06:10:42.873Z,13.19
2022-11-09T06:13:11.581Z,13.20
2022-11-09T06:15:38.586Z,13.24
2022-11-09T06:18:05.528Z,13.24
2022-11-09T06:20:33.419Z,13.23
2022-11-09T06:23:04.011Z,13.19
2022-11-09T06:25:33.229Z,13.17
2022-11-09T06:28:01.111Z,13.17
2022-11-09T06:30:28.253Z,13.21
2022-11-09T06:33:00.319Z,13.15
2022-11-09T06:35:27.756Z,13.16
2022-11-09T06:37:59.669Z,13.13
2022-11-09T06:40:27.413Z,13.12
2022-11-09T06:43:00.574Z,13.18
2022-11-09T06:45:29.573Z,13.73
2022-11-09T06:48:02.781Z,15.16
2022-11-09T06:50:32.637Z,15.76
2022-11-09T06:53:02.435Z,16.19
2022-11-09T06:55:31.500Z,16.51
2022-11-09T06:57:58.749Z,16.71
2022-11-09T07:00:27.849Z,16.88
2022-11-09T07:02:54.978Z,17.01
2022-11-09T07:05:22.106Z,17.09
2022-11-09T07:07:49.203Z,17.17
2022-11-09T07:10:16.975Z,17.22
2022-11-09T07:12:44.019Z,17.26
2022-11-09T07:15:12.337Z,17.28
2022-11-09T07:17:40.208Z,17.32
2022-11-09T07:20:11.489Z,17.33
2022-11-09T07:22:39.934Z,17.36
2022-11-09T07:25:09.423Z,17.40
2022-11-09T07:27:37.146Z,17.42
2022-11-09T07:30:05.030Z,17.40
2022-11-09T07:35:23.885Z,17.45
2022-11-09T07:37:50.842Z,17.45
2022-11-09T07:40:17.830Z,17.48
2022-11-09T07:42:44.831Z,17.47
2022-11-09T07:45:11.998Z,17.50
2022-11-09T07:47:38.990Z,17.50
2022-11-09T07:50:06.735Z,17.51
2022-11-09T07:52:33.692Z,17.52
2022-11-09T07:55:00.669Z,17.54
2022-11-09T07:57:27.624Z,17.51
2022-11-09T07:59:54.539Z,17.51
2022-11-09T08:02:21.536Z,17.52
2022-11-09T08:04:48.613Z,17.55
2022-11-09T08:07:15.574Z,17.56
2022-11-09T08:09:42.505Z,17.55
2022-11-09T08:12:09.521Z,17.54
2022-11-09T08:14:36.455Z,17.53
2022-11-09T08:17:03.406Z,17.54
2022-11-09T08:19:30.398Z,17.53
2022-11-09T08:21:57.925Z,17.54
2022-11-09T08:24:24.873Z,17.54
2022-11-09T08:26:51.837Z,17.53
2022-11-09T08:29:18.804Z,17.56
2022-11-09T08:31:45.742Z,17.57
2022-11-09T08:34:14.259Z,17.56
2022-11-09T08:36:41.326Z,17.53
2022-11-09T08:39:10.185Z,17.57
2022-11-09T08:41:37.689Z,17.58
2022-11-09T08:44:04.911Z,17.60
2022-11-09T08:46:32.662Z,17.57
2022-11-09T08:49:01.835Z,17.60
2022-11-09T08:51:28.768Z,17.55
2022-11-09T08:53:55.927Z,17.57
2022-11-09T08:56:22.955Z,17.60
2022-11-09T08:58:50.000Z,17.62
2022-11-09T09:01:21.594Z,17.64
2022-11-09T09:03:48.729Z,17.64
2022-11-09T09:06:15.765Z,17.61
2022-11-09T09:08:43.913Z,17.61
2022-11-09T09:11:10.872Z,17.61
2022-11-09T09:13:43.115Z,17.66
2022-11-09T09:16:15.781Z,17.63
2022-11-09T09:18:43.267Z,17.68
2022-11-09T09:21:11.588Z,17.67
2022-11-09T09:23:38.584Z,17.67
2022-11-09T09:26:06.022Z,17.67
2022-11-09T09:28:33.354Z,17.69
2022-11-09T09:31:01.878Z,17.69
2022-11-09T09:33:29.390Z,17.68
2022-11-09T09:35:58.143Z,17.72
2022-11-09T09:38:27.751Z,17.67
2022-11-09T09:41:00.028Z,17.68
2022-11-09T09:43:43.183Z,17.72
2022-11-09T09:46:36.375Z,17.78
2022-11-09T09:49:31.804Z,17.70
2022-11-09T09:52:10.929Z,17.67
2022-11-09T09:54:50.154Z,17.66
2022-11-09T09:57:22.812Z,17.70
2022-11-09T09:59:58.094Z,17.70
2022-11-09T10:02:35.992Z,17.69
2022-11-09T10:05:11.981Z,17.66
2022-11-09T10:08:14.256Z,17.67
2022-11-09T10:11:28.981Z,17.70
2022-11-09T10:14:30.022Z,17.76
2022-11-09T10:17:39.180Z,17.73
2022-11-09T10:20:18.486Z,17.74
2022-11-09T10:23:30.707Z,17.71
2022-11-09T10:26:27.065Z,17.71
2022-11-09T10:29:15.790Z,17.70
2022-11-09T10:31:46.574Z,17.74
2022-11-09T10:34:30.037Z,17.75
2022-11-09T10:37:21.042Z,17.73
2022-11-09T10:39:58.299Z,17.75
2022-11-09T10:42:25.294Z,17.74
2022-11-09T10:44:52.307Z,17.74
2022-11-09T10:47:19.965Z,17.77
2022-11-09T10:49:46.978Z,17.77
2022-11-09T10:52:44.146Z,17.78
2022-11-09T10:55:26.590Z,17.74
2022-11-09T10:58:23.960Z,17.75
2022-11-09T11:01:11.947Z,17.82
2022-11-09T11:03:40.311Z,17.80
2022-11-09T11:06:31.428Z,17.82
2022-11-09T11:08:58.439Z,17.85
2022-11-09T11:11:37.046Z,17.87
2022-11-09T11:14:28.322Z,17.85
2022-11-09T11:16:56.234Z,17.84
2022-11-09T11:19:41.679Z,17.84
2022-11-09T11:22:27.358Z,17.86
2022-11-09T11:25:11.536Z,17.84
2022-11-09T11:27:49.410Z,17.84
2022-11-09T11:30:22.971Z,17.90
2022-11-09T11:32:51.041Z,17.90
2022-11-09T11:35:45.497Z,17.86
2022-11-09T11:38:41.500Z,17.87
2022-11-09T11:41:50.175Z,17.92
2022-11-09T11:44:28.822Z,17.94
2022-11-09T11:47:20.687Z,17.91
2022-11-09T11:50:46.181Z,17.90
2022-11-09T11:54:04.632Z,17.90
2022-11-09T11:56:46.676Z,17.91
2022-11-09T11:59:54.046Z,17.91
2022-11-09T12:02:56.712Z,17.95
2022-11-09T12:06:00.323Z,17.92
2022-11-09T12:09:16.427Z,17.92
2022-11-09T12:12:03.639Z,17.90
2022-11-09T12:14:46.706Z,17.94
2022-11-09T12:17:38.099Z,17.88
2022-11-09T12:20:33.571Z,17.87
2022-11-09T12:23:12.181Z,17.88
2022-11-09T12:26:26.131Z,17.88
2022-11-09T12:29:19.551Z,17.87
2022-11-09T12:31:58.131Z,17.84
2022-11-09T12:34:57.740Z,17.87
2022-11-09T12:37:34.914Z,17.86
2022-11-09T12:40:25.048Z,17.91
2022-11-09T12:43:32.472Z,17.91
2022-11-09T12:46:01.793Z,17.90
2022-11-09T12:48:35.392Z,17.89
2022-11-09T12:51:05.468Z,17.87
2022-11-09T12:53:38.708Z,17.88
2022-11-09T12:56:34.667Z,17.90
2022-11-09T12:59:22.629Z,17.95
2022-11-09T13:01:59.323Z,17.90
2022-11-09T13:04:27.345Z,17.87
2022-11-09T13:07:18.031Z,17.92
2022-11-09T13:09:52.894Z,17.89
2022-11-09T13:12:40.179Z,17.89
2022-11-09T13:15:26.054Z,17.92
2022-11-09T13:18:18.071Z,17.94
2022-11-09T13:20:56.488Z,17.93
2022-11-09T13:23:47.557Z,17.91
2022-11-09T13:26:31.035Z,17.90
2022-11-09T13:29:41.080Z,17.88
2022-11-09T13:32:14.028Z,17.88
2022-11-09T13:35:04.396Z,17.87
2022-11-09T13:37:41.249Z,17.95
2022-11-09T13:40:31.804Z,17.99
2022-11-09T13:43:13.890Z,17.99
2022-11-09T13:45:47.595Z,17.98
2022-11-09T13:48:48.764Z,18.01
2022-11-09T13:51:19.236Z,17.97
2022-11-09T13:54:03.037Z,17.95
2022-11-09T13:56:41.176Z,17.96
2022-11-09T13:59:21.708Z,17.92
2022-11-09T14:01:54.029Z,17.89
2022-11-09T14:04:41.262Z,17.88
2022-11-09T14:07:29.346Z,17.90
2022-11-09T14:10:12.739Z,17.89
2022-11-09T14:13:33.855Z,17.91
2022-11-09T14:16:42.614Z,17.98
2022-11-09T14:19:39.257Z,17.95
2022-11-09T14:22:19.772Z,17.92
2022-11-09T14:24:47.233Z,17.91
2022-11-09T14:27:23.585Z,17.98
2022-11-09T14:29:56.099Z,17.95
2022-11-09T14:32:27.538Z,17.96
2022-11-09T14:35:32.864Z,17.98
2022-11-09T14:38:16.211Z,17.94
2022-11-09T14:40:48.970Z,17.94
2022-11-09T14:43:44.757Z,17.95
2022-11-09T14:46:22.566Z,17.94
2022-11-09T14:48:56.333Z,17.94
2022-11-09T14:51:32.559Z,17.95
2022-11-09T14:54:02.371Z,17.92
2022-11-09T14:56:30.658Z,17.92
2022-11-09T14:58:58.138Z,17.91
2022-11-09T15:01:28.313Z,17.94
2022-11-09T15:04:21.423Z,17.98
2022-11-09T15:06:57.470Z,17.99
2022-11-09T15:09:43.895Z,17.97
2022-11-09T15:12:20.835Z,17.91
2022-11-09T15:15:01.600Z,17.84
2022-11-09T15:17:32.352Z,17.87
2022-11-09T15:20:28.610Z,17.93
2022-11-09T15:23:21.120Z,17.95
2022-11-09T15:25:48.446Z,17.96
2022-11-09T15:28:25.384Z,17.95
2022-11-09T15:30:55.448Z,17.99
2022-11-09T15:33:27.721Z,17.98
2022-11-09T15:35:59.877Z,18.00
2022-11-09T15:38:39.545Z,18.03
2022-11-09T15:41:19.480Z,18.03
2022-11-09T15:43:46.826Z,18.06
2022-11-09T15:46:36.186Z,18.06
2022-11-09T15:49:34.365Z,18.07
2022-11-09T15:52:01.423Z,18.05
2022-11-09T15:54:28.469Z,18.06
2022-11-09T15:56:55.428Z,18.05
2022-11-09T15:59:26.923Z,18.06
2022-11-09T16:01:54.055Z,15.16
2022-11-09T16:04:20.971Z,14.78
2022-11-09T16:06:48.141Z,14.63
2022-11-09T16:09:15.970Z,14.51
2022-11-09T16:11:42.942Z,14.46
2022-11-09T16:14:09.924Z,14.40
2022-11-09T16:16:36.987Z,14.38
2022-11-09T16:19:04.007Z,14.32
2022-11-09T16:21:30.953Z,14.30
2022-11-09T16:23:58.772Z,14.28
2022-11-09T16:26:26.314Z,14.22
2022-11-09T16:28:55.090Z,14.18
2022-11-09T16:31:41.065Z,14.14
2022-11-09T16:34:08.994Z,14.10
2022-11-09T16:36:38.877Z,14.09
2022-11-09T16:39:12.738Z,14.08
2022-11-09T16:41:42.024Z,14.00
2022-11-09T16:44:09.126Z,13.99
2022-11-09T16:46:36.093Z,13.92
2022-11-09T16:49:03.554Z,13.92
2022-11-09T16:51:31.146Z,13.89
2022-11-09T16:53:58.524Z,13.85
2022-11-09T16:56:26.253Z,13.86
2022-11-09T16:58:53.234Z,13.82
2022-11-09T17:01:23.777Z,13.83
2022-11-09T17:03:51.266Z,13.81
2022-11-09T17:06:21.382Z,13.78
2022-11-09T17:08:48.398Z,13.76
2022-11-09T17:11:17.781Z,13.77
2022-11-09T17:13:47.446Z,13.72
2022-11-09T17:16:16.853Z,13.72
2022-11-09T17:18:43.971Z,13.74
2022-11-09T17:21:14.313Z,13.80
2022-11-09T17:23:43.005Z,13.75
2022-11-09T17:26:11.295Z,13.77
2022-11-09T17:28:42.974Z,13.78
2022-11-09T17:31:17.986Z,13.77
2022-11-09T17:33:46.145Z,13.73
2022-11-09T17:36:16.146Z,13.69
2022-11-09T17:38:43.315Z,13.67
2022-11-09T17:41:18.522Z,13.59
2022-11-09T17:43:46.196Z,13.65
2022-11-09T17:46:18.007Z,13.60
2022-11-09T17:48:47.512Z,13.57
2022-11-09T17:51:18.014Z,13.57
2022-11-09T17:53:45.483Z,13.51
2022-11-09T17:56:14.395Z,13.54
2022-11-09T17:58:44.784Z,13.50
2022-11-09T18:01:15.966Z,13.48
2022-11-09T18:03:43.201Z,13.53
2022-11-09T18:06:17.040Z,13.46
2022-11-09T18:08:45.489Z,13.50
2022-11-09T18:11:14.484Z,13.45
2022-11-09T18:13:42.924Z,13.46
2022-11-09T18:16:17.895Z,13.48
2022-11-09T18:18:45.867Z,13.52
2022-11-09T18:21:16.774Z,13.48
2022-11-09T18:23:45.555Z,13.46
2022-11-09T18:26:13.750Z,13.48
2022-11-09T18:28:40.857Z,13.49
2022-11-09T18:31:11.468Z,13.38
2022-11-09T18:33:40.298Z,13.37
2022-11-09T18:36:15.447Z,13.39
2022-11-09T18:38:44.226Z,13.30
2022-11-09T18:41:20.637Z,13.32
2022-11-09T18:43:49.049Z,13.27
2022-11-09T18:46:18.872Z,13.27
2022-11-09T18:48:49.648Z,13.25
2022-11-09T18:51:16.748Z,13.20
2022-11-09T18:53:46.717Z,13.19
2022-11-09T18:56:25.040Z,13.16
2022-11-09T18:58:56.588Z,13.17
2022-11-09T19:01:26.977Z,13.16
2022-11-09T19:03:59.051Z,13.11
2022-11-09T19:06:27.746Z,13.10
2022-11-09T19:09:13.611Z,13.09
2022-11-09T19:11:41.211Z,13.10
2022-11-09T19:14:10.728Z,13.06
2022-11-09T19:16:38.217Z,13.01
2022-11-09T19:19:05.644Z,13.01
2022-11-09T19:21:56.933Z,13.00
2022-11-09T19:24:28.625Z,12.99
2022-11-09T19:26:56.910Z,12.94
2022-11-09T19:29:24.299Z,12.93
2022-11-09T19:31:51.748Z,12.95
2022-11-09T19:34:21.776Z,12.92
2022-11-09T19:36:50.594Z,12.91
2022-11-09T19:39:18.269Z,12.91
2022-11-09T19:41:45.661Z,12.90
2022-11-09T19:44:14.573Z,12.85
2022-11-09T19:46:42.640Z,12.84
2022-11-09T19:49:10.289Z,12.88
2022-11-09T19:51:39.057Z,12.84
2022-11-09T19:54:08.271Z,12.82
2022-11-09T19:56:37.321Z,12.81
2022-11-09T19:59:05.636Z,12.81
2022-11-09T20:01:33.403Z,12.75
2022-11-09T20:04:05.167Z,12.72
2022-11-09T20:06:40.169Z,12.74
2022-11-09T20:09:07.689Z,12.72
2022-11-09T20:12:15.003Z,12.72
2022-11-09T20:14:42.721Z,12.67
2022-11-09T20:17:10.054Z,12.68
2022-11-09T20:19:37.351Z,12.65
2022-11-09T20:22:04.631Z,12.62
2022-11-09T20:24:32.067Z,12.58
2022-11-09T20:26:59.369Z,12.55
2022-11-09T20:29:28.250Z,12.54
2022-11-09T20:31:55.715Z,12.54
2022-11-09T20:34:23.346Z,12.54
2022-11-09T20:36:50.608Z,12.55
2022-11-09T20:39:18.284Z,12.55
2022-11-09T20:41:45.604Z,12.55
2022-11-09T20:44:13.477Z,12.52
2022-11-09T20:46:40.728Z,12.47
2022-11-09T20:49:09.257Z,12.46
2022-11-09T20:51:36.550Z,12.47
2022-11-09T20:54:07.567Z,12.46
2022-11-09T20:56:36.831Z,12.44
2022-11-09T20:59:04.392Z,12.41
2022-11-09T21:01:31.817Z,12.43
2022-11-09T21:03:59.149Z,12.43
2022-11-09T21:06:26.314Z,12.39
2022-11-09T21:08:56.321Z,12.35
2022-11-09T21:11:28.536Z,12.33
2022-11-09T21:13:56.335Z,12.34
2022-11-09T21:16:24.126Z,12.36
2022-11-09T21:18:51.246Z,12.35
2022-11-09T21:21:23.995Z,12.34
2022-11-09T21:24:09.780Z,12.34
2022-11-09T21:26:55.724Z,12.38
2022-11-09T21:29:43.664Z,12.38
2022-11-09T21:32:12.200Z,12.36
2022-11-09T21:34:39.380Z,12.31
2022-11-09T21:37:06.952Z,12.26
2022-11-09T21:39:34.564Z,12.27
2022-11-09T21:42:03.041Z,12.23
2022-11-09T21:44:32.447Z,12.25
2022-11-09T21:47:00.432Z,12.24
2022-11-09T21:49:28.040Z,12.28
2022-11-09T21:51:55.487Z,12.29
2022-11-09T21:54:23.689Z,12.27
2022-11-09T21:56:51.912Z,12.22
2022-11-09T21:59:19.016Z,12.29
2022-11-09T22:01:46.528Z,12.30
2022-11-09T22:04:13.937Z,12.29
2022-11-09T22:06:43.328Z,12.30
2022-11-09T22:09:17.045Z,12.31
2022-11-09T22:12:02.425Z,12.27
2022-11-09T22:14:47.837Z,12.26
2022-11-09T22:17:15.001Z,12.20
2022-11-09T22:20:00.870Z,12.22
2022-11-09T22:22:30.158Z,12.20
2022-11-09T22:24:57.872Z,12.15
2022-11-09T22:27:25.009Z,12.15
2022-11-09T22:29:52.118Z,12.13
2022-11-09T22:32:19.333Z,12.08
2022-11-09T22:34:46.415Z,12.02
2022-11-09T22:37:13.390Z,12.04
2022-11-09T22:39:45.864Z,12.02
2022-11-09T22:42:14.369Z,12.01
2022-11-09T22:44:44.443Z,11.97
2022-11-09T22:47:11.506Z,11.96
2022-11-09T22:49:41.246Z,12.00
2022-11-09T22:52:08.218Z,11.97
2022-11-09T22:54:35.193Z,11.96
2022-11-09T22:57:02.309Z,12.00
2022-11-09T22:59:29.278Z,11.98
2022-11-09T23:01:56.364Z,11.98
2022-11-09T23:04:23.368Z,11.99
2022-11-09T23:06:50.506Z,11.98
2022-11-09T23:09:17.580Z,11.91
2022-11-09T23:11:44.731Z,11.98
2022-11-09T23:14:14.538Z,11.94
2022-11-09T23:16:41.561Z,11.96
2022-11-09T23:19:08.539Z,11.92
2022-11-09T23:21:37.405Z,11.93
2022-11-09T23:24:07.255Z,11.91
2022-11-09T23:26:34.896Z,11.94
2022-11-09T23:29:06.620Z,11.93
2022-11-09T23:31:33.566Z,11.91
2022-11-09T23:34:00.527Z,11.88
2022-11-09T23:36:27.470Z,11.91
2022-11-09T23:38:54.613Z,11.83
2022-11-09T23:41:22.072Z,11.88
2022-11-09T23:43:50.112Z,11.85
2022-11-09T23:46:18.122Z,11.84
2022-11-09T23:48:45.473Z,11.84
2022-11-09T23:51:12.793Z,11.84
2022-11-09T23:53:40.096Z,11.86
2022-11-09T23:56:10.934Z,11.84
2022-11-09T23:58:38.780Z,11.83
